Time;durP1;ratioP1;P1;durP2;ratioP2;P2;SDS_P1;SDS_P2;PMS_P1;PMS_P2;Temp;Humidity;BMP_temperature;BMP_pressure;BME280_temperature;BME280_humidity;BME280_pressure;Samples;Min_cycle;Max_cycle;Signal;HPM_P1;HPM_P2
2022/02/21 00:01:45;;;;;;;9.0;3.5;;;;;;;5.3;100.0;99400;;;;
2022/02/21 00:03:45;;;;;;;9.0;3.5;;;;;;;5.4;100.0;99400;;;;
2022/02/21 00:05:45;;;;;;;9.0;3.5;;;;;;;5.3;100.0;99430;;;;
2022/02/21 00:07:45;;;;;;;9.0;3.5;;;;;;;5.2;100.0;99420;;;;
2022/02/21 00:11:45;;;;;;;9.0;3.5;;;;;;;5.1;100.0;99430;;;;
2022/02/21 00:19:45;;;;;;;13.5;4.2;;;;;;;5.0;100.0;99430;;;;
2022/02/21 00:31:45;;;;;;;13.5;4.2;;;;;;;4.9;100.0;99460;;;;
2022/02/21 00:33:45;;;;;;;13.5;4.2;;;;;;;5.0;100.0;99440;;;;
2022/02/21 00:37:45;;;;;;;12.1;4.3;;;;;;;5.1;100.0;99490;;;;
2022/02/21 00:39:45;;;;;;;12.1;4.3;;;;;;;5.0;100.0;99490;;;;
2022/02/21 00:41:45;;;;;;;12.1;4.3;;;;;;;5.1;100.0;99500;;;;
2022/02/21 00:43:45;;;;;;;12.1;4.3;;;;;;;5.0;100.0;99500;;;;
2022/02/21 00:47:45;;;;;;;12.1;4.3;;;;;;;5.1;100.0;99500;;;;
2022/02/21 00:49:45;;;;;;;12.1;4.3;;;;;;;5.0;100.0;99520;;;;
2022/02/21 01:03:45;;;;;;;11.6;5.0;;;;;;;4.9;100.0;99540;;;;
2022/02/21 01:07:45;;;;;;;11.6;5.0;;;;;;;4.8;100.0;99540;;;;
2022/02/21 01:09:45;;;;;;;11.6;5.0;;;;;;;4.9;100.0;99550;;;;
2022/02/21 01:11:45;;;;;;;11.6;5.0;;;;;;;4.8;100.0;99550;;;;
2022/02/21 01:17:45;;;;;;;15.3;5.2;;;;;;;4.7;100.0;99550;;;;
2022/02/21 01:33:45;;;;;;;15.3;5.2;;;;;;;4.8;100.0;99580;;;;
2022/02/21 01:35:46;;;;;;;15.3;5.2;;;;;;;4.7;100.0;99590;;;;
2022/02/21 01:41:45;;;;;;;13.9;4.6;;;;;;;4.6;100.0;99580;;;;
2022/02/21 01:47:45;;;;;;;13.9;4.6;;;;;;;4.5;100.0;99590;;;;
2022/02/21 01:49:45;;;;;;;13.9;4.6;;;;;;;4.6;100.0;99600;;;;
2022/02/21 01:51:45;;;;;;;13.9;4.6;;;;;;;4.5;100.0;99590;;;;
2022/02/21 01:57:48;;;;;;;11.6;4.9;;;;;;;4.4;100.0;99620;;;;
2022/02/21 02:01:45;;;;;;;11.6;4.9;;;;;;;4.3;100.0;99620;;;;
2022/02/21 02:07:45;;;;;;;11.6;4.9;;;;;;;4.4;100.0;99610;;;;
2022/02/21 02:09:45;;;;;;;11.6;4.9;;;;;;;4.3;100.0;99620;;;;
2022/02/21 02:11:45;;;;;;;11.6;4.9;;;;;;;4.2;100.0;99610;;;;
2022/02/21 02:15:45;;;;;;;11.6;4.9;;;;;;;4.3;100.0;99600;;;;
2022/02/21 02:17:45;;;;;;;14.1;5.0;;;;;;;4.2;100.0;99610;;;;
2022/02/21 02:27:46;;;;;;;14.1;5.0;;;;;;;4.1;100.0;99620;;;;
2022/02/21 02:47:45;;;;;;;13.2;4.8;;;;;;;4.0;100.0;99650;;;;
2022/02/21 02:49:45;;;;;;;13.2;4.8;;;;;;;3.9;100.0;99640;;;;
2022/02/21 02:51:45;;;;;;;13.2;4.8;;;;;;;4.0;100.0;99640;;;;
2022/02/21 02:59:45;;;;;;;11.0;4.7;;;;;;;4.1;100.0;99630;;;;
2022/02/21 03:13:45;;;;;;;11.0;4.7;;;;;;;4.0;100.0;99620;;;;
2022/02/21 03:21:45;;;;;;;13.0;5.4;;;;;;;3.9;100.0;99610;;;;
2022/02/21 03:23:45;;;;;;;13.0;5.4;;;;;;;4.0;100.0;99610;;;;
2022/02/21 03:25:45;;;;;;;13.0;5.4;;;;;;;3.9;100.0;99620;;;;
2022/02/21 03:27:45;;;;;;;13.0;5.4;;;;;;;4.0;100.0;99610;;;;
2022/02/21 03:59:45;;;;;;;13.3;5.3;;;;;;;3.9;100.0;99680;;;;
2022/02/21 04:05:45;;;;;;;13.3;5.3;;;;;;;3.8;100.0;99670;;;;
2022/02/21 04:29:45;;;;;;;12.9;5.0;;;;;;;3.7;100.0;99650;;;;
2022/02/21 04:31:45;;;;;;;12.9;5.0;;;;;;;3.8;100.0;99660;;;;
2022/02/21 04:39:45;;;;;;;12.0;5.1;;;;;;;3.7;100.0;99670;;;;
2022/02/21 04:43:45;;;;;;;12.0;5.1;;;;;;;3.8;100.0;99670;;;;
2022/02/21 04:45:45;;;;;;;12.0;5.1;;;;;;;3.7;100.0;99660;;;;
2022/02/21 04:59:45;;;;;;;13.9;5.1;;;;;;;3.6;100.0;99670;;;;
2022/02/21 05:03:45;;;;;;;13.9;5.1;;;;;;;3.5;100.0;99670;;;;
2022/02/21 05:07:46;;;;;;;13.9;5.1;;;;;;;3.6;100.0;99690;;;;
2022/02/21 05:31:46;;;;;;;11.7;4.5;;;;;;;3.7;100.0;99670;;;;
2022/02/21 05:45:45;;;;;;;9.0;4.3;;;;;;;3.8;100.0;99660;;;;
2022/02/21 06:19:45;;;;;;;11.0;5.0;;;;;;;3.9;100.0;99650;;;;
2022/02/21 06:21:47;;;;;;;11.0;5.0;;;;;;;3.8;100.0;99650;;;;
2022/02/21 06:25:46;;;;;;;11.0;5.0;;;;;;;3.9;100.0;99650;;;;
2022/02/21 06:27:45;;;;;;;11.0;5.0;;;;;;;3.8;100.0;99650;;;;
2022/02/21 06:31:45;;;;;;;11.0;5.0;;;;;;;3.9;100.0;99650;;;;
2022/02/21 06:33:45;;;;;;;11.0;5.0;;;;;;;3.8;100.0;99650;;;;
2022/02/21 06:45:45;;;;;;;10.4;5.0;;;;;;;3.7;100.0;99660;;;;
2022/02/21 06:47:45;;;;;;;10.4;5.0;;;;;;;3.8;100.0;99670;;;;
2022/02/21 07:07:45;;;;;;;9.4;4.7;;;;;;;3.9;100.0;99650;;;;
2022/02/21 07:13:45;;;;;;;9.4;4.7;;;;;;;3.8;100.0;99650;;;;
2022/02/21 07:25:45;;;;;;;10.3;4.8;;;;;;;3.7;100.0;99640;;;;
2022/02/21 07:27:45;;;;;;;10.3;4.8;;;;;;;3.8;100.0;99640;;;;
2022/02/21 07:33:45;;;;;;;10.3;4.8;;;;;;;4.0;100.0;99640;;;;
2022/02/21 07:35:45;;;;;;;12.4;4.9;;;;;;;3.9;100.0;99630;;;;
2022/02/21 07:39:45;;;;;;;12.4;4.9;;;;;;;3.8;100.0;99640;;;;
2022/02/21 07:41:45;;;;;;;12.4;4.9;;;;;;;3.9;100.0;99620;;;;
2022/02/21 07:43:45;;;;;;;12.4;4.9;;;;;;;4.0;100.0;99630;;;;
2022/02/21 07:51:45;;;;;;;12.4;4.9;;;;;;;4.1;100.0;99620;;;;
2022/02/21 07:57:45;;;;;;;14.1;4.3;;;;;;;4.2;100.0;99610;;;;
2022/02/21 08:13:45;;;;;;;14.1;4.3;;;;;;;4.3;100.0;99610;;;;
2022/02/21 08:17:45;;;;;;;13.0;4.3;;;;;;;4.4;100.0;99590;;;;
2022/02/21 08:25:45;;;;;;;13.0;4.3;;;;;;;4.3;100.0;99580;;;;
2022/02/21 08:27:45;;;;;;;13.0;4.3;;;;;;;4.4;100.0;99590;;;;
2022/02/21 08:31:46;;;;;;;13.0;4.3;;;;;;;4.5;100.0;99570;;;;
2022/02/21 08:35:45;;;;;;;8.7;4.4;;;;;;;4.4;100.0;99570;;;;
2022/02/21 08:37:45;;;;;;;8.7;4.4;;;;;;;4.5;100.0;99570;;;;
2022/02/21 08:41:45;;;;;;;8.7;4.4;;;;;;;4.7;100.0;99560;;;;
2022/02/21 08:45:47;;;;;;;8.7;4.4;;;;;;;4.6;100.0;99550;;;;
2022/02/21 08:47:45;;;;;;;8.7;4.4;;;;;;;4.8;100.0;99550;;;;
2022/02/21 08:49:46;;;;;;;8.7;4.4;;;;;;;4.7;100.0;99570;;;;
2022/02/21 08:59:45;;;;;;;9.0;4.1;;;;;;;4.6;100.0;99540;;;;
2022/02/21 09:03:46;;;;;;;9.0;4.1;;;;;;;4.5;100.0;99540;;;;
2022/02/21 09:09:45;;;;;;;9.0;4.1;;;;;;;4.4;100.0;99530;;;;
2022/02/21 09:11:45;;;;;;;9.0;4.1;;;;;;;4.5;100.0;99530;;;;
2022/02/21 09:13:45;;;;;;;9.0;4.1;;;;;;;4.4;100.0;99520;;;;
2022/02/21 09:17:45;;;;;;;11.3;4.4;;;;;;;4.3;100.0;99490;;;;
2022/02/21 09:19:45;;;;;;;11.3;4.4;;;;;;;4.4;100.0;99500;;;;
2022/02/21 09:21:45;;;;;;;11.3;4.4;;;;;;;4.3;100.0;99520;;;;
2022/02/21 09:25:45;;;;;;;11.3;4.4;;;;;;;4.2;100.0;99520;;;;
2022/02/21 09:35:45;;;;;;;13.8;4.7;;;;;;;4.1;100.0;99510;;;;
2022/02/21 09:39:45;;;;;;;13.8;4.7;;;;;;;4.0;100.0;99500;;;;
2022/02/21 09:49:45;;;;;;;13.8;4.7;;;;;;;3.9;100.0;99470;;;;
2022/02/21 09:55:45;;;;;;;10.2;5.0;;;;;;;3.8;100.0;99480;;;;
2022/02/21 09:57:45;;;;;;;10.2;5.0;;;;;;;3.9;100.0;99480;;;;
2022/02/21 09:59:45;;;;;;;10.2;5.0;;;;;;;4.0;100.0;99470;;;;
2022/02/21 10:01:45;;;;;;;10.2;5.0;;;;;;;3.9;100.0;99490;;;;
2022/02/21 10:11:45;;;;;;;10.2;5.0;;;;;;;4.0;100.0;99460;;;;
2022/02/21 10:15:45;;;;;;;12.8;5.6;;;;;;;3.9;100.0;99470;;;;
2022/02/21 10:25:45;;;;;;;12.8;5.6;;;;;;;3.8;100.0;99440;;;;
2022/02/21 10:29:46;;;;;;;12.8;5.6;;;;;;;3.9;100.0;99440;;;;
2022/02/21 10:39:45;;;;;;;15.9;5.5;;;;;;;3.8;100.0;99460;;;;
2022/02/21 10:41:45;;;;;;;15.9;5.5;;;;;;;3.9;100.0;99470;;;;
2022/02/21 10:55:45;;;;;;;11.9;5.7;;;;;;;4.0;100.0;99480;;;;
2022/02/21 10:57:45;;;;;;;11.9;5.7;;;;;;;3.9;100.0;99470;;;;
2022/02/21 10:59:45;;;;;;;11.9;5.7;;;;;;;4.0;100.0;99470;;;;
2022/02/21 11:01:45;;;;;;;11.9;5.7;;;;;;;3.9;100.0;99470;;;;
2022/02/21 11:03:45;;;;;;;11.9;5.7;;;;;;;4.0;100.0;99460;;;;
2022/02/21 11:05:45;;;;;;;11.9;5.7;;;;;;;4.1;100.0;99460;;;;
2022/02/21 11:09:45;;;;;;;11.9;5.7;;;;;;;4.0;100.0;99460;;;;
2022/02/21 11:13:45;;;;;;;17.1;6.3;;;;;;;3.9;100.0;99450;;;;
2022/02/21 11:15:45;;;;;;;17.1;6.3;;;;;;;4.0;100.0;99450;;;;
2022/02/21 11:17:45;;;;;;;17.1;6.3;;;;;;;4.1;100.0;99450;;;;
2022/02/21 11:21:46;;;;;;;17.1;6.3;;;;;;;4.2;100.0;99450;;;;
2022/02/21 11:33:45;;;;;;;18.2;6.3;;;;;;;4.3;100.0;99440;;;;
2022/02/21 11:35:46;;;;;;;18.2;6.3;;;;;;;4.4;100.0;99450;;;;
2022/02/21 11:43:46;;;;;;;18.2;6.3;;;;;;;4.3;100.0;99430;;;;
2022/02/21 11:45:45;;;;;;;18.2;6.3;;;;;;;4.4;100.0;99420;;;;
2022/02/21 11:49:45;;;;;;;18.2;6.3;;;;;;;4.5;100.0;99420;;;;
2022/02/21 11:57:45;;;;;;;21.5;7.1;;;;;;;4.6;100.0;99430;;;;
2022/02/21 12:01:45;;;;;;;21.5;7.1;;;;;;;4.7;100.0;99420;;;;
2022/02/21 12:03:45;;;;;;;21.5;7.1;;;;;;;4.8;100.0;99430;;;;
2022/02/21 12:11:45;;;;;;;21.5;7.1;;;;;;;4.9;100.0;99430;;;;
2022/02/21 12:15:45;;;;;;;30.1;8.5;;;;;;;4.8;100.0;99410;;;;
2022/02/21 12:17:45;;;;;;;30.1;8.5;;;;;;;4.9;100.0;99410;;;;
2022/02/21 12:19:45;;;;;;;30.1;8.5;;;;;;;5.0;100.0;99420;;;;
2022/02/21 12:21:45;;;;;;;30.1;8.5;;;;;;;5.1;100.0;99420;;;;
2022/02/21 12:23:45;;;;;;;30.1;8.5;;;;;;;5.0;100.0;99410;;;;
2022/02/21 12:25:45;;;;;;;30.1;8.5;;;;;;;5.1;100.0;99410;;;;
2022/02/21 12:31:45;;;;;;;30.1;8.5;;;;;;;5.2;100.0;99410;;;;
2022/02/21 12:35:45;;;;;;;36.6;9.4;;;;;;;5.3;100.0;99410;;;;
2022/02/21 12:37:47;;;;;;;36.6;9.4;;;;;;;5.4;100.0;99430;;;;
2022/02/21 12:39:46;;;;;;;36.6;9.4;;;;;;;5.5;100.0;99440;;;;
2022/02/21 12:53:45;;;;;;;29.9;8.6;;;;;;;5.6;100.0;99410;;;;
2022/02/21 12:57:45;;;;;;;29.9;8.6;;;;;;;5.7;100.0;99410;;;;
2022/02/21 13:01:45;;;;;;;29.9;8.6;;;;;;;5.9;100.0;99410;;;;
2022/02/21 13:03:45;;;;;;;29.9;8.6;;;;;;;5.6;100.0;99420;;;;
2022/02/21 13:11:55;;;;;;;29.9;8.6;;;;;;;5.7;100.0;99470;;;;
2022/02/21 13:13:45;;;;;;;15.4;5.7;;;;;;;5.8;100.0;99480;;;;
2022/02/21 13:23:45;;;;;;;15.4;5.7;;;;;;;5.9;100.0;99510;;;;
2022/02/21 13:27:48;;;;;;;15.4;5.7;;;;;;;6.0;100.0;99530;;;;
2022/02/21 13:29:45;;;;;;;15.4;5.7;;;;;;;5.9;100.0;99510;;;;
2022/02/21 13:35:45;;;;;;;17.1;5.2;;;;;;;5.8;100.0;99560;;;;
2022/02/21 13:37:45;;;;;;;17.1;5.2;;;;;;;5.9;100.0;99560;;;;
2022/02/21 13:39:45;;;;;;;17.1;5.2;;;;;;;6.0;100.0;99580;;;;
2022/02/21 13:41:47;;;;;;;17.1;5.2;;;;;;;6.1;100.0;99590;;;;
2022/02/21 13:45:45;;;;;;;17.1;5.2;;;;;;;6.0;100.0;99590;;;;
2022/02/21 13:51:45;;;;;;;17.1;5.2;;;;;;;5.9;100.0;99630;;;;
2022/02/21 13:55:45;;;;;;;22.6;5.8;;;;;;;6.0;100.0;99660;;;;
2022/02/21 14:05:45;;;;;;;22.6;5.8;;;;;;;5.9;100.0;99670;;;;
2022/02/21 14:15:47;;;;;;;13.2;4.9;;;;;;;6.0;100.0;99750;;;;
2022/02/21 14:19:46;;;;;;;13.2;4.9;;;;;;;6.1;100.0;99770;;;;
2022/02/21 14:21:47;;;;;;;13.2;4.9;;;;;;;6.0;100.0;99740;;;;
2022/02/21 14:23:48;;;;;;;13.2;4.9;;;;;;;6.1;100.0;99770;;;;
2022/02/21 14:29:45;;;;;;;13.2;4.9;;;;;;;6.2;100.0;99810;;;;
2022/02/21 14:31:45;;;;;;;13.2;4.9;;;;;;;6.3;100.0;99820;;;;
2022/02/21 14:33:45;;;;;;;15.2;5.1;;;;;;;6.2;100.0;99840;;;;
2022/02/21 14:35:45;;;;;;;15.2;5.1;;;;;;;6.1;100.0;99830;;;;
2022/02/21 14:37:45;;;;;;;15.2;5.1;;;;;;;6.3;100.0;99870;;;;
2022/02/21 14:39:45;;;;;;;15.2;5.1;;;;;;;6.2;100.0;99860;;;;
2022/02/21 14:41:45;;;;;;;15.2;5.1;;;;;;;6.3;100.0;99860;;;;
2022/02/21 14:43:45;;;;;;;15.2;5.1;;;;;;;6.4;100.0;99880;;;;
2022/02/21 14:55:45;;;;;;;18.2;4.7;;;;;;;6.5;100.0;99940;;;;
2022/02/21 15:01:45;;;;;;;18.2;4.7;;;;;;;6.6;100.0;99990;;;;
2022/02/21 15:03:46;;;;;;;18.2;4.7;;;;;;;6.5;100.0;99940;;;;
2022/02/21 15:05:45;;;;;;;18.2;4.7;;;;;;;6.4;100.0;99980;;;;
2022/02/21 15:09:45;;;;;;;18.2;4.7;;;;;;;6.5;100.0;100000;;;;
2022/02/21 15:11:50;;;;;;;18.2;4.7;;;;;;;6.4;100.0;100010;;;;
2022/02/21 15:15:45;;;;;;;12.9;4.5;;;;;;;6.5;100.0;100050;;;;
2022/02/21 15:21:45;;;;;;;12.9;4.5;;;;;;;6.4;100.0;100080;;;;
2022/02/21 15:27:45;;;;;;;12.9;4.5;;;;;;;6.3;100.0;100100;;;;
2022/02/21 15:31:45;;;;;;;12.9;4.5;;;;;;;6.2;100.0;100110;;;;
2022/02/21 15:33:46;;;;;;;12.6;4.1;;;;;;;6.3;100.0;100140;;;;
2022/02/21 15:43:45;;;;;;;12.6;4.1;;;;;;;6.4;100.0;100160;;;;
2022/02/21 15:45:45;;;;;;;12.6;4.1;;;;;;;6.3;100.0;100180;;;;
2022/02/21 15:49:45;;;;;;;12.6;4.1;;;;;;;6.2;100.0;100190;;;;
2022/02/21 15:53:45;;;;;;;10.2;3.6;;;;;;;6.3;100.0;100210;;;;
2022/02/21 15:55:45;;;;;;;10.2;3.6;;;;;;;6.2;100.0;100220;;;;
2022/02/21 15:57:45;;;;;;;10.2;3.6;;;;;;;6.1;100.0;100230;;;;
2022/02/21 15:59:45;;;;;;;10.2;3.6;;;;;;;6.2;100.0;100230;;;;
2022/02/21 16:03:45;;;;;;;10.2;3.6;;;;;;;6.3;100.0;100260;;;;
2022/02/21 16:23:45;;;;;;;13.4;4.4;;;;;;;6.2;100.0;100310;;;;
2022/02/21 16:27:45;;;;;;;13.4;4.4;;;;;;;6.3;100.0;100340;;;;
2022/02/21 16:33:45;;;;;;;12.6;4.6;;;;;;;6.4;100.0;100370;;;;
2022/02/21 16:35:45;;;;;;;12.6;4.6;;;;;;;6.3;100.0;100360;;;;
2022/02/21 16:39:45;;;;;;;12.6;4.6;;;;;;;6.2;100.0;100380;;;;
2022/02/21 16:41:45;;;;;;;12.6;4.6;;;;;;;6.3;100.0;100380;;;;
2022/02/21 16:43:47;;;;;;;12.6;4.6;;;;;;;6.2;100.0;100400;;;;
2022/02/21 16:47:45;;;;;;;12.6;4.6;;;;;;;6.3;100.0;100410;;;;
2022/02/21 16:49:46;;;;;;;12.6;4.6;;;;;;;6.2;100.0;100410;;;;
2022/02/21 16:53:45;;;;;;;19.3;5.4;;;;;;;6.1;100.0;100430;;;;
2022/02/21 16:57:45;;;;;;;19.3;5.4;;;;;;;6.0;100.0;100450;;;;
2022/02/21 17:01:45;;;;;;;19.3;5.4;;;;;;;6.1;100.0;100460;;;;
2022/02/21 17:05:45;;;;;;;19.3;5.4;;;;;;;6.2;100.0;100480;;;;
2022/02/21 17:11:45;;;;;;;19.3;5.4;;;;;;;6.3;100.0;100490;;;;
2022/02/21 17:15:45;;;;;;;19.3;5.8;;;;;;;6.2;100.0;100510;;;;
2022/02/21 17:19:45;;;;;;;19.3;5.8;;;;;;;6.1;100.0;100510;;;;
2022/02/21 17:21:45;;;;;;;19.3;5.8;;;;;;;6.2;100.0;100520;;;;
2022/02/21 17:43:45;;;;;;;22.2;6.0;;;;;;;6.3;100.0;100570;;;;
2022/02/21 17:45:46;;;;;;;22.2;6.0;;;;;;;6.2;100.0;100560;;;;
2022/02/21 17:53:45;;;;;;;23.1;6.2;;;;;;;6.3;100.0;100610;;;;
2022/02/21 17:57:45;;;;;;;23.1;6.2;;;;;;;6.2;100.0;100620;;;;
2022/02/21 18:15:46;;;;;;;20.7;6.2;;;;;;;6.3;100.0;100650;;;;
2022/02/21 18:21:45;;;;;;;20.7;6.2;;;;;;;6.2;100.0;100670;;;;
2022/02/21 18:25:47;;;;;;;20.7;6.2;;;;;;;6.3;100.0;100670;;;;
2022/02/21 18:35:46;;;;;;;16.7;5.3;;;;;;;6.2;100.0;100710;;;;
2022/02/21 18:37:45;;;;;;;16.7;5.3;;;;;;;6.3;100.0;100710;;;;
2022/02/21 18:45:46;;;;;;;16.7;5.3;;;;;;;6.4;100.0;100730;;;;
2022/02/21 18:49:47;;;;;;;16.7;5.3;;;;;;;6.5;100.0;100740;;;;
2022/02/21 18:51:47;;;;;;;16.3;4.9;;;;;;;6.4;100.0;100750;;;;
2022/02/21 18:53:45;;;;;;;16.3;4.9;;;;;;;6.3;100.0;100760;;;;
2022/02/21 18:55:48;;;;;;;16.3;4.9;;;;;;;6.4;100.0;100760;;;;
2022/02/21 19:07:45;;;;;;;16.3;4.9;;;;;;;6.5;100.0;100810;;;;
2022/02/21 19:09:45;;;;;;;16.3;4.9;;;;;;;6.4;100.0;100810;;;;
2022/02/21 19:13:45;;;;;;;17.4;4.7;;;;;;;6.5;100.0;100820;;;;
2022/02/21 19:15:45;;;;;;;17.4;4.7;;;;;;;6.3;100.0;100820;;;;
2022/02/21 19:29:45;;;;;;;17.4;4.7;;;;;;;6.4;100.0;100870;;;;
2022/02/21 19:31:45;;;;;;;18.9;5.9;;;;;;;6.3;100.0;100880;;;;
2022/02/21 19:39:45;;;;;;;18.9;5.9;;;;;;;6.4;100.0;100910;;;;
2022/02/21 19:41:45;;;;;;;18.9;5.9;;;;;;;6.3;100.0;100910;;;;
2022/02/21 19:45:45;;;;;;;18.9;5.9;;;;;;;6.4;100.0;100910;;;;
2022/02/21 19:49:45;;;;;;;18.9;5.9;;;;;;;6.3;100.0;100920;;;;
2022/02/21 19:51:45;;;;;;;21.4;5.9;;;;;;;6.4;100.0;100930;;;;
2022/02/21 19:55:45;;;;;;;21.4;5.9;;;;;;;6.3;100.0;100940;;;;
2022/02/21 19:59:45;;;;;;;21.4;5.9;;;;;;;6.4;100.0;100950;;;;
2022/02/21 20:01:45;;;;;;;21.4;5.9;;;;;;;6.3;100.0;100960;;;;
2022/02/21 20:09:45;;;;;;;21.4;5.9;;;;;;;6.4;100.0;100990;;;;
2022/02/21 20:13:45;;;;;;;27.3;7.3;;;;;;;6.3;100.0;101010;;;;
2022/02/21 20:17:45;;;;;;;27.3;7.3;;;;;;;6.2;100.0;101030;;;;
2022/02/21 20:19:45;;;;;;;27.3;7.3;;;;;;;6.3;100.0;101030;;;;
2022/02/21 20:27:45;;;;;;;27.3;7.3;;;;;;;6.4;100.0;101050;;;;
2022/02/21 20:41:46;;;;;;;24.9;7.9;;;;;;;6.3;100.0;101090;;;;
2022/02/21 20:53:45;;;;;;;25.6;7.3;;;;;;;6.2;100.0;101110;;;;
2022/02/21 20:55:45;;;;;;;25.6;7.3;;;;;;;6.3;100.0;101120;;;;
2022/02/21 20:57:45;;;;;;;25.6;7.3;;;;;;;6.2;100.0;101130;;;;
2022/02/21 21:01:45;;;;;;;25.6;7.3;;;;;;;6.3;100.0;101140;;;;
2022/02/21 21:17:45;;;;;;;27.2;8.0;;;;;;;6.2;100.0;101180;;;;
2022/02/21 21:41:45;;;;;;;33.0;9.0;;;;;;;6.3;100.0;101230;;;;
2022/02/21 21:45:45;;;;;;;33.0;9.0;;;;;;;6.2;100.0;101230;;;;
2022/02/21 21:47:45;;;;;;;33.0;9.0;;;;;;;6.1;100.0;101220;;;;
2022/02/21 21:53:45;;;;;;;32.8;8.6;;;;;;;6.0;100.0;101250;;;;
2022/02/21 21:55:48;;;;;;;32.8;8.6;;;;;;;5.9;100.0;101250;;;;
2022/02/21 21:59:45;;;;;;;32.8;8.6;;;;;;;6.0;100.0;101250;;;;
2022/02/21 22:05:45;;;;;;;32.8;8.6;;;;;;;5.9;100.0;101270;;;;
2022/02/21 22:11:45;;;;;;;32.1;8.6;;;;;;;5.8;100.0;101280;;;;
2022/02/21 22:13:46;;;;;;;32.1;8.6;;;;;;;5.7;100.0;101290;;;;
2022/02/21 22:15:50;;;;;;;32.1;8.6;;;;;;;5.8;100.0;101290;;;;
2022/02/21 22:19:45;;;;;;;32.1;8.6;;;;;;;5.7;100.0;101310;;;;
2022/02/21 22:29:45;;;;;;;32.1;8.6;;;;;;;5.6;100.0;101310;;;;
2022/02/21 22:41:45;;;;;;;34.6;9.0;;;;;;;5.7;100.0;101320;;;;
2022/02/21 22:45:45;;;;;;;34.6;9.0;;;;;;;5.6;100.0;101330;;;;
2022/02/21 22:53:45;;;;;;;35.0;8.3;;;;;;;5.5;100.0;101340;;;;
2022/02/21 22:55:45;;;;;;;35.0;8.3;;;;;;;5.6;100.0;101350;;;;
2022/02/21 22:57:45;;;;;;;35.0;8.3;;;;;;;5.5;100.0;101360;;;;
2022/02/21 23:19:45;;;;;;;32.6;10.0;;;;;;;5.4;100.0;101400;;;;
2022/02/21 23:23:45;;;;;;;32.6;10.0;;;;;;;5.5;100.0;101410;;;;
2022/02/21 23:33:45;;;;;;;29.0;8.6;;;;;;;5.6;100.0;101430;;;;
2022/02/21 23:37:45;;;;;;;29.0;8.6;;;;;;;5.5;100.0;101420;;;;
2022/02/21 23:47:45;;;;;;;29.0;8.6;;;;;;;5.4;100.0;101430;;;;
2022/02/21 23:55:45;;;;;;;33.0;9.1;;;;;;;5.6;100.0;101460;;;;
2022/02/21 23:59:45;;;;;;;33.0;9.1;;;;;;;5.5;100.0;101470;;;;
